Time;durP1;ratioP1;P1;durP2;ratioP2;P2;SDS_P1;SDS_P2;PMS_P1;PMS_P2;Temp;Humidity;BMP_temperature;BMP_pressure;BME280_temperature;BME280_humidity;BME280_pressure;Samples;Min_cycle;Max_cycle;Signal;HPM_P1;HPM_P2
2023/04/26 00:00:23;;;;;;;;;;;;;;;21.33;51.69;100900.75;4892508;29;4384;-67
2023/04/26 00:02:49;;;;;;;;;;;;;;;21.32;51.72;100897.13;4891482;29;4093;-66
2023/04/26 00:05:18;;;;;;;;;;;;;;;21.31;51.60;100897.78;4885367;29;4352;-67
2023/04/26 00:07:45;;;;;;;;;;;;;;;21.30;51.41;100908.56;4876550;29;4102;-66
2023/04/26 00:10:11;;;;;;;;;;;;;;;21.30;51.45;100897.06;4873079;29;4126;-67
2023/04/26 00:12:40;;;;;;;;;;;;;;;21.29;51.57;100901.31;4874387;29;4502;-67
2023/04/26 00:15:06;;;;;;;;;;;;;;;21.28;51.38;100904.84;4874478;29;4228;-67
2023/04/26 00:17:32;;;;;;;;;;;;;;;21.28;51.43;100901.94;4877035;29;4403;-67
2023/04/26 00:19:59;;;;;;;;;;;;;;;21.27;51.56;100906.97;4871855;29;4203;-67
2023/04/26 00:22:25;;;;;;;;;;;;;;;21.25;51.46;100901.13;4875760;29;4103;-66
2023/04/26 00:24:52;;;;;;;;;;;;;;;21.24;51.54;100905.41;4876087;29;4102;-66
2023/04/26 00:27:18;;;;;;;;;;;;;;;21.23;51.37;100898.16;4872253;29;4265;-67
2023/04/26 00:29:44;;;;;;;;;;;;;;;21.23;51.51;100914.69;4874423;29;4233;-66
2023/04/26 00:32:11;;;;;;;;;;;;;;;21.22;51.29;100908.22;4886307;29;4213;-67
2023/04/26 00:34:37;;;;;;;;;;;;;;;21.24;51.54;100907.56;4893730;29;4135;-67
2023/04/26 00:37:04;;;;;;;;;;;;;;;21.22;51.56;100907.47;4893678;29;4052;-67
2023/04/26 00:39:30;;;;;;;;;;;;;;;21.21;51.23;100906.72;4898330;29;4363;-67
2023/04/26 00:41:56;;;;;;;;;;;;;;;21.20;51.52;100911.00;4907816;29;4257;-67
2023/04/26 00:44:23;;;;;;;;;;;;;;;21.20;51.13;100905.25;4886471;29;4082;-67
2023/04/26 00:46:50;;;;;;;;;;;;;;;21.20;51.19;100905.25;4883225;29;4187;-67
2023/04/26 00:49:17;;;;;;;;;;;;;;;21.20;51.33;100905.25;4876736;29;4445;-67
2023/04/26 00:51:44;;;;;;;;;;;;;;;21.19;51.26;100906.66;4892075;29;4161;-68
2023/04/26 00:54:11;;;;;;;;;;;;;;;21.20;50.98;100910.25;4892661;29;4168;-67
2023/04/26 00:56:37;;;;;;;;;;;;;;;21.17;51.25;100909.44;4876965;29;4230;-67
2023/04/26 00:59:03;;;;;;;;;;;;;;;21.17;51.19;100909.44;4891282;29;4097;-67
2023/04/26 01:01:30;;;;;;;;;;;;;;;21.17;50.99;100911.56;4893005;29;4624;-67
2023/04/26 01:03:56;;;;;;;;;;;;;;;21.15;51.18;100909.34;4874146;29;4294;-67
2023/04/26 01:06:23;;;;;;;;;;;;;;;21.14;51.02;100913.59;4877494;29;4692;-67
2023/04/26 01:08:50;;;;;;;;;;;;;;;21.13;51.07;100915.00;4876497;29;4072;-67
2023/04/26 01:11:18;;;;;;;;;;;;;;;21.11;51.26;100921.41;4897535;29;4164;-67
2023/04/26 01:13:45;;;;;;;;;;;;;;;21.10;51.15;100914.19;4877400;29;4168;-67
2023/04/26 01:16:11;;;;;;;;;;;;;;;21.10;51.23;100919.19;4877651;29;4263;-67
2023/04/26 01:18:38;;;;;;;;;;;;;;;21.10;51.26;100919.19;4876010;29;4051;-66
2023/04/26 01:21:05;;;;;;;;;;;;;;;21.10;51.10;100919.19;4888653;29;5204;-66
2023/04/26 01:23:31;;;;;;;;;;;;;;;21.09;51.28;100927.06;4874720;29;4411;-67
2023/04/26 01:25:57;;;;;;;;;;;;;;;21.08;50.89;100927.75;4900020;29;4079;-67
2023/04/26 01:28:24;;;;;;;;;;;;;;;21.07;50.88;100932.00;4888339;29;4037;-67
2023/04/26 01:30:50;;;;;;;;;;;;;;;21.07;50.92;100926.25;4890217;29;4030;-67
2023/04/26 01:33:17;;;;;;;;;;;;;;;21.07;50.77;100923.38;4891822;29;4533;-67
2023/04/26 01:35:43;;;;;;;;;;;;;;;21.07;51.14;100926.25;4913566;29;4340;-67
2023/04/26 01:38:10;;;;;;;;;;;;;;;21.06;50.98;100930.53;4896830;29;4173;-67
2023/04/26 01:40:36;;;;;;;;;;;;;;;21.06;51.12;100930.53;4894658;29;4541;-67
2023/04/26 01:43:05;;;;;;;;;;;;;;;21.07;50.88;100937.75;4878120;29;4221;-67
2023/04/26 01:45:31;;;;;;;;;;;;;;;21.10;51.08;100937.22;4873677;29;4390;-67
2023/04/26 01:48:16;;;;;;;;;;;;;;;21.11;50.89;100940.81;4883725;29;4147;-67
2023/04/26 01:50:42;;;;;;;;;;;;;;;21.11;51.07;100929.31;4891589;29;4072;-67
2023/04/26 01:53:11;;;;;;;;;;;;;;;21.12;51.22;100942.31;4894915;29;4222;-67
2023/04/26 01:55:38;;;;;;;;;;;;;;;21.14;51.38;100936.63;4892778;29;4243;-67
2023/04/26 01:58:04;;;;;;;;;;;;;;;21.14;51.40;100942.41;4907046;29;4225;-66
2023/04/26 02:00:32;;;;;;;;;;;;;;;21.13;51.32;100938.78;4909984;29;3993;-66
2023/04/26 02:02:58;;;;;;;;;;;;;;;21.15;51.53;100938.13;4864784;29;4324;-67
2023/04/26 02:05:25;;;;;;;;;;;;;;;21.14;51.57;100942.41;4895983;29;4076;-67
2023/04/26 02:07:51;;;;;;;;;;;;;;;21.12;51.54;100943.06;4902762;29;4535;-66
2023/04/26 02:10:17;;;;;;;;;;;;;;;21.13;51.55;100947.41;4877967;29;4162;-67
2023/04/26 02:12:44;;;;;;;;;;;;;;;21.11;51.35;100946.59;4887670;29;3963;-67
2023/04/26 02:15:10;;;;;;;;;;;;;;;21.10;51.49;100951.59;4888592;29;4068;-66
2023/04/26 02:17:37;;;;;;;;;;;;;;;21.10;51.58;100945.13;4874654;29;4579;-66
2023/04/26 02:20:03;;;;;;;;;;;;;;;21.10;51.38;100942.25;4891805;29;4230;-67
2023/04/26 02:22:30;;;;;;;;;;;;;;;21.09;51.55;100941.47;4874494;29;5319;-66
2023/04/26 02:24:57;;;;;;;;;;;;;;;21.08;51.42;100945.03;4877158;29;4160;-67
2023/04/26 02:27:26;;;;;;;;;;;;;;;21.07;51.47;100940.63;4873604;29;4061;-67
2023/04/26 02:29:53;;;;;;;;;;;;;;;21.07;51.29;100932.00;4873296;29;4204;-67
2023/04/26 02:32:19;;;;;;;;;;;;;;;21.06;51.50;100936.28;4876213;29;4493;-67
2023/04/26 02:34:46;;;;;;;;;;;;;;;21.06;51.53;100939.16;4874129;29;4147;-67
2023/04/26 02:37:12;;;;;;;;;;;;;;;21.04;51.31;100933.31;4874319;29;4686;-67
2023/04/26 02:39:38;;;;;;;;;;;;;;;21.03;51.24;100934.72;4884624;29;4239;-67
2023/04/26 02:42:09;;;;;;;;;;;;;;;21.01;51.27;100929.59;4888504;29;4246;-67
2023/04/26 02:44:36;;;;;;;;;;;;;;;21.01;51.55;100928.88;4871611;29;4232;-67
2023/04/26 02:47:02;;;;;;;;;;;;;;;21.02;51.43;100924.59;4896224;29;4005;-67
2023/04/26 02:49:29;;;;;;;;;;;;;;;21.04;51.43;100930.44;4894110;29;4180;-67
2023/04/26 02:51:55;;;;;;;;;;;;;;;21.08;51.51;100939.25;4901167;29;4163;-67
2023/04/26 02:54:22;;;;;;;;;;;;;;;21.07;51.51;100929.88;4872691;29;4627;-67
2023/04/26 02:56:50;;;;;;;;;;;;;;;21.08;51.50;100931.34;4891951;29;4241;-67
2023/04/26 02:59:16;;;;;;;;;;;;;;;21.11;51.55;100932.19;4873665;29;4439;-67
2023/04/26 03:01:42;;;;;;;;;;;;;;;21.12;51.78;100933.69;4876505;29;4062;-66
2023/04/26 03:04:09;;;;;;;;;;;;;;;21.14;51.71;100928.00;4880329;29;4316;-67
2023/04/26 03:06:36;;;;;;;;;;;;;;;21.14;51.95;100936.63;4905279;29;4222;-66
2023/04/26 03:09:04;;;;;;;;;;;;;;;21.14;51.76;100936.63;4894844;29;4507;-67
2023/04/26 03:11:31;;;;;;;;;;;;;;;21.14;51.86;100939.50;4880098;29;4343;-67
2023/04/26 03:13:57;;;;;;;;;;;;;;;21.13;51.99;100935.91;4912898;29;4087;-67
2023/04/26 03:16:23;;;;;;;;;;;;;;;21.15;51.93;100940.28;4893061;29;4177;-73
2023/04/26 03:18:50;;;;;;;;;;;;;;;21.13;51.98;100935.91;4891949;29;5379;-70
2023/04/26 03:21:17;;;;;;;;;;;;;;;21.13;51.85;100932.28;4907538;29;4425;-72
2023/04/26 03:23:43;;;;;;;;;;;;;;;21.15;51.85;100932.38;4879614;29;4285;-72
2023/04/26 03:26:10;;;;;;;;;;;;;;;21.16;51.81;100936.72;4872558;29;4227;-71
2023/04/26 03:28:36;;;;;;;;;;;;;;;21.17;52.02;100943.25;4876598;29;4106;-72
2023/04/26 03:31:02;;;;;;;;;;;;;;;21.18;51.88;100941.84;4873232;29;4051;-72
2023/04/26 03:33:29;;;;;;;;;;;;;;;21.19;51.96;100944.06;4888584;29;4964;-72
2023/04/26 03:35:56;;;;;;;;;;;;;;;21.18;51.99;100948.34;4887113;29;4343;-72
2023/04/26 03:38:23;;;;;;;;;;;;;;;21.18;52.03;100942.56;4875134;29;4506;-72
2023/04/26 03:40:50;;;;;;;;;;;;;;;21.17;52.04;100949.75;4878745;29;4000;-72
2023/04/26 03:43:16;;;;;;;;;;;;;;;21.17;51.98;100941.09;4876439;29;4383;-72
2023/04/26 03:45:45;;;;;;;;;;;;;;;21.18;52.03;100953.38;4894298;29;4069;-72
2023/04/26 03:48:11;;;;;;;;;;;;;;;21.17;52.00;100952.63;4872559;29;5230;-72
2023/04/26 03:50:38;;;;;;;;;;;;;;;21.17;51.73;100952.63;4886200;29;4618;-72
2023/04/26 03:53:04;;;;;;;;;;;;;;;21.18;51.90;100956.97;4890195;29;4160;-71
2023/04/26 03:55:31;;;;;;;;;;;;;;;21.17;51.76;100952.63;4872851;29;4041;-72
2023/04/26 03:57:57;;;;;;;;;;;;;;;21.19;51.94;100955.59;4886166;29;4082;-72
2023/04/26 04:00:24;;;;;;;;;;;;;;;21.20;51.87;100957.06;4881854;29;4116;-72
2023/04/26 04:02:50;;;;;;;;;;;;;;;21.19;51.85;100955.59;4890620;29;4734;-72
2023/04/26 04:05:22;;;;;;;;;;;;;;;21.19;51.99;100949.84;4887200;29;3979;-72
2023/04/26 04:07:49;;;;;;;;;;;;;;;21.19;51.86;100967.13;4889116;29;4466;-72
2023/04/26 04:10:16;;;;;;;;;;;;;;;21.19;51.96;100964.25;4887203;29;4154;-72
2023/04/26 04:12:43;;;;;;;;;;;;;;;21.17;52.00;100964.16;4876543;29;4163;-73
2023/04/26 04:15:09;;;;;;;;;;;;;;;21.17;51.83;100966.28;4891795;29;4011;-72
2023/04/26 04:17:39;;;;;;;;;;;;;;;21.18;51.89;100971.38;4893150;29;3989;-72
2023/04/26 04:20:06;;;;;;;;;;;;;;;21.18;51.93;100971.38;4891583;29;4164;-72
2023/04/26 04:22:32;;;;;;;;;;;;;;;21.17;51.93;100969.91;4901114;29;4308;-71
2023/04/26 04:24:59;;;;;;;;;;;;;;;21.18;51.95;100968.50;4882911;29;4166;-72
2023/04/26 04:27:25;;;;;;;;;;;;;;;21.19;52.17;100970.00;4893502;29;4165;-72
2023/04/26 04:29:55;;;;;;;;;;;;;;;21.19;52.00;100975.75;4894259;29;4043;-72
2023/04/26 04:32:22;;;;;;;;;;;;;;;21.20;51.82;100974.34;4870982;29;4555;-72
2023/04/26 04:34:52;;;;;;;;;;;;;;;21.21;51.85;100975.84;4863287;29;4221;-72
2023/04/26 04:37:20;;;;;;;;;;;;;;;21.21;51.82;100972.97;4871289;29;5449;-72
2023/04/26 04:39:46;;;;;;;;;;;;;;;21.20;51.82;100985.13;4878030;29;4164;-72
2023/04/26 04:42:13;;;;;;;;;;;;;;;21.20;51.80;100980.13;4878582;29;4149;-72
2023/04/26 04:44:40;;;;;;;;;;;;;;;21.19;51.88;100992.28;4888153;29;4171;-72
2023/04/26 04:47:06;;;;;;;;;;;;;;;21.18;51.72;100988.66;4883477;29;4143;-72
2023/04/26 04:49:33;;;;;;;;;;;;;;;21.18;51.72;100991.53;4910881;29;4167;-72
2023/04/26 04:51:59;;;;;;;;;;;;;;;21.19;51.79;100987.28;4908746;29;4203;-73
2023/04/26 04:54:26;;;;;;;;;;;;;;;21.20;51.75;100983.00;4893379;29;5267;-72
2023/04/26 04:56:52;;;;;;;;;;;;;;;21.21;51.85;100993.13;4888025;29;4415;-72
2023/04/26 04:59:19;;;;;;;;;;;;;;;21.21;52.07;100987.38;4895245;29;4204;-72
2023/04/26 05:01:47;;;;;;;;;;;;;;;21.21;51.88;100993.13;4884984;29;4081;-72
2023/04/26 05:04:14;;;;;;;;;;;;;;;21.22;51.81;100991.72;4911141;29;4191;-72
2023/04/26 05:06:41;;;;;;;;;;;;;;;21.22;51.87;100993.88;4900911;29;3949;-72
2023/04/26 05:09:09;;;;;;;;;;;;;;;21.22;51.87;100994.59;4910309;29;4936;-72
2023/04/26 05:11:35;;;;;;;;;;;;;;;21.22;51.83;100999.63;4910824;29;4023;-72
2023/04/26 05:14:03;;;;;;;;;;;;;;;21.20;51.96;100997.38;4909855;29;4398;-72
2023/04/26 05:16:29;;;;;;;;;;;;;;;21.21;51.79;101003.88;4892693;29;4530;-72
2023/04/26 05:18:58;;;;;;;;;;;;;;;21.20;51.80;101002.41;4900599;29;4353;-72
2023/04/26 05:21:24;;;;;;;;;;;;;;;21.19;51.77;101007.44;4911889;29;4061;-72
2023/04/26 05:23:51;;;;;;;;;;;;;;;21.21;51.82;101010.41;4911540;29;4436;-72
2023/04/26 05:26:18;;;;;;;;;;;;;;;21.20;51.63;101014.66;4898737;29;4449;-72
2023/04/26 05:28:54;;;;;;;;;;;;;;;21.21;51.65;101010.41;4908002;29;4085;-73
2023/04/26 05:31:39;;;;;;;;;;;;;;;21.23;51.78;101027.75;4888537;29;4116;-72
2023/04/26 05:34:11;;;;;;;;;;;;;;;21.23;51.71;101021.25;4903860;29;4110;-73
2023/04/26 05:36:38;;;;;;;;;;;;;;;21.22;51.59;101022.66;4893913;29;4124;-72
2023/04/26 05:39:06;;;;;;;;;;;;;;;21.22;51.67;101023.41;4900189;29;4231;-72
2023/04/26 05:41:32;;;;;;;;;;;;;;;21.23;51.59;101033.50;4895109;29;5015;-72
2023/04/26 05:43:59;;;;;;;;;;;;;;;21.22;51.85;101029.16;4910646;29;3986;-73
2023/04/26 05:46:25;;;;;;;;;;;;;;;21.22;51.82;101026.28;4884248;29;4135;-72
2023/04/26 05:48:52;;;;;;;;;;;;;;;21.21;51.75;101038.44;4888359;29;3985;-71
2023/04/26 05:51:19;;;;;;;;;;;;;;;21.28;51.26;101043.84;4896896;29;4214;-73
2023/04/26 05:53:45;;;;;;;;;;;;;;;20.63;46.50;101030.03;4892856;29;4074;-70
2023/04/26 05:56:12;;;;;;;;;;;;;;;20.67;48.59;101035.25;4902307;29;4065;-69
2023/04/26 05:58:38;;;;;;;;;;;;;;;21.00;50.25;101042.53;4906774;29;4515;-71
2023/04/26 06:01:05;;;;;;;;;;;;;;;21.16;50.56;101049.03;4901716;29;4202;-69
2023/04/26 06:03:32;;;;;;;;;;;;;;;21.26;50.41;101043.75;4892568;29;4452;-72
2023/04/26 06:06:00;;;;;;;;;;;;;;;21.30;50.21;101043.94;4903525;29;4096;-71
2023/04/26 06:08:27;;;;;;;;;;;;;;;21.38;50.05;101039.94;4887901;29;4269;-73
2023/04/26 06:10:53;;;;;;;;;;;;;;;21.38;50.22;101043.56;4908064;29;4335;-72
2023/04/26 06:13:20;;;;;;;;;;;;;;;21.39;50.64;101035.66;4906269;29;4362;-72
2023/04/26 06:15:46;;;;;;;;;;;;;;;21.38;50.89;101048.59;4905648;29;4210;-72
2023/04/26 06:18:13;;;;;;;;;;;;;;;21.37;50.90;101044.19;4903559;29;4223;-72
2023/04/26 06:20:41;;;;;;;;;;;;;;;21.39;51.28;101045.03;4871884;29;4381;-72
2023/04/26 06:23:08;;;;;;;;;;;;;;;21.41;51.30;101044.41;4888054;29;4079;-70
2023/04/26 06:25:35;;;;;;;;;;;;;;;21.41;51.41;101039.41;4875639;29;4100;-71
2023/04/26 06:28:02;;;;;;;;;;;;;;;21.42;51.26;101048.81;4893296;29;4048;-71
2023/04/26 06:30:30;;;;;;;;;;;;;;;21.41;51.40;101047.31;4903699;29;4329;-72
2023/04/26 06:32:58;;;;;;;;;;;;;;;21.39;51.38;101044.28;4903832;29;4241;-73
2023/04/26 06:35:25;;;;;;;;;;;;;;;21.29;51.76;101053.22;4892029;29;4343;-75
2023/04/26 06:37:51;;;;;;;;;;;;;;;21.34;51.75;101041.22;4884975;29;4236;-73
2023/04/26 06:40:19;;;;;;;;;;;;;;;21.36;51.36;101055.00;4884633;29;4285;-72
2023/04/26 06:42:45;;;;;;;;;;;;;;;21.36;51.35;101042.72;4874894;29;4158;-72
2023/04/26 06:45:24;;;;;;;;;;;;;;;21.37;51.75;101044.94;4867858;29;4165;-73
2023/04/26 06:47:50;;;;;;;;;;;;;;;21.38;51.77;101054.34;4880554;29;4469;-73
2023/04/26 06:50:17;;;;;;;;;;;;;;;21.37;51.78;101055.72;4880497;29;4188;-73
2023/04/26 06:52:43;;;;;;;;;;;;;;;21.40;51.57;101048.69;4870062;29;3964;-73
2023/04/26 06:55:10;;;;;;;;;;;;;;;21.40;51.99;101054.44;4867317;29;4264;-73
2023/04/26 06:57:36;;;;;;;;;;;;;;;21.41;51.58;101050.91;4868306;29;4099;-73
2023/04/26 07:00:03;;;;;;;;;;;;;;;21.40;51.57;101055.19;4867073;29;4420;-72
2023/04/26 07:02:29;;;;;;;;;;;;;;;21.42;52.00;101063.19;4864388;29;4319;-73
2023/04/26 07:04:56;;;;;;;;;;;;;;;21.42;51.40;101057.44;4880545;29;4193;-73
2023/04/26 07:07:23;;;;;;;;;;;;;;;21.42;51.61;101060.31;4866597;29;4172;-73
2023/04/26 07:09:49;;;;;;;;;;;;;;;21.42;51.58;101066.81;4881119;29;4119;-73
2023/04/26 07:12:15;;;;;;;;;;;;;;;21.44;51.38;101057.50;4870881;29;4222;-72
2023/04/26 07:14:42;;;;;;;;;;;;;;;21.43;51.67;101061.78;4878364;29;4056;-72
2023/04/26 07:17:09;;;;;;;;;;;;;;;21.32;51.12;101055.53;4886633;29;4447;-74
2023/04/26 07:19:35;;;;;;;;;;;;;;;20.80;46.99;101066.09;4888075;29;4512;-78
2023/04/26 07:22:02;;;;;;;;;;;;;;;20.95;47.62;101072.53;4891934;29;4063;-74
2023/04/26 07:24:28;;;;;;;;;;;;;;;20.95;47.02;101070.38;4891913;29;4008;-76
2023/04/26 07:26:55;;;;;;;;;;;;;;;21.12;47.18;101072.63;4892436;29;3980;-83
2023/04/26 07:29:21;;;;;;;;;;;;;;;21.23;47.80;101078.84;4886658;29;4151;-82
2023/04/26 07:31:47;;;;;;;;;;;;;;;21.25;48.40;101071.06;4895179;29;4147;-82
2023/04/26 07:34:14;;;;;;;;;;;;;;;21.27;48.67;101076.91;4910674;29;4228;-78
2023/04/26 07:36:40;;;;;;;;;;;;;;;21.29;48.03;101067.63;4893421;29;4072;-82
2023/04/26 07:39:08;;;;;;;;;;;;;;;21.29;48.24;101070.50;4890531;29;4964;-82
2023/04/26 07:41:35;;;;;;;;;;;;;;;21.29;48.16;101079.16;4872431;29;4137;-81
2023/04/26 07:44:01;;;;;;;;;;;;;;;21.29;47.80;101074.13;4876079;29;4171;-81
2023/04/26 07:46:28;;;;;;;;;;;;;;;21.30;47.37;101081.38;4874930;29;4228;-80
2023/04/26 07:48:54;;;;;;;;;;;;;;;21.31;47.15;101077.09;4874176;29;4033;-79
2023/04/26 07:51:20;;;;;;;;;;;;;;;21.30;47.18;101081.38;4876246;29;4024;-78
2023/04/26 07:53:47;;;;;;;;;;;;;;;21.31;46.65;101085.00;4873839;29;4059;-79
2023/04/26 07:56:14;;;;;;;;;;;;;;;21.30;46.57;101078.50;4869682;29;5034;-79
2023/04/26 07:58:40;;;;;;;;;;;;;;;21.30;46.76;101080.63;4867636;29;4135;-79
2023/04/26 08:01:07;;;;;;;;;;;;;;;21.28;46.05;101089.16;4870493;29;4506;-85
2023/04/26 08:03:34;;;;;;;;;;;;;;;21.21;47.04;101096.81;4867739;29;4089;-77
2023/04/26 08:06:01;;;;;;;;;;;;;;;21.03;46.53;101101.72;4869595;29;4165;-73
2023/04/26 08:08:27;;;;;;;;;;;;;;;20.14;40.58;101096.63;4868834;29;4064;-80
2023/04/26 08:10:54;;;;;;;;;;;;;;;20.05;41.03;101106.97;4892126;29;4234;-73
2023/04/26 08:13:21;;;;;;;;;;;;;;;20.49;40.59;101093.34;4873169;29;4188;-76
2023/04/26 08:15:47;;;;;;;;;;;;;;;20.77;41.61;101096.16;4869737;29;4243;-82
2023/04/26 08:18:13;;;;;;;;;;;;;;;20.80;42.35;101109.28;4868033;29;4165;-81
2023/04/26 08:20:40;;;;;;;;;;;;;;;20.91;42.34;101099.72;4869975;29;4103;-79
2023/04/26 08:23:06;;;;;;;;;;;;;;;19.99;38.77;101109.50;4873927;29;4126;-72
2023/04/26 08:25:33;;;;;;;;;;;;;;;20.30;39.55;101100.31;4871980;29;4026;-72
2023/04/26 08:28:00;;;;;;;;;;;;;;;20.63;38.63;101095.47;4877854;29;4468;-72
2023/04/26 08:30:27;;;;;;;;;;;;;;;20.80;41.37;101100.63;4874983;29;4263;-72
2023/04/26 08:32:53;;;;;;;;;;;;;;;20.83;43.33;101096.44;4881536;29;4337;-72
2023/04/26 08:35:21;;;;;;;;;;;;;;;20.87;43.48;101099.53;4870049;29;3955;-73
2023/04/26 08:37:47;;;;;;;;;;;;;;;20.89;43.77;101105.38;4872361;29;4163;-72
2023/04/26 08:40:13;;;;;;;;;;;;;;;20.93;43.99;101091.16;4872082;29;4132;-72
2023/04/26 08:42:43;;;;;;;;;;;;;;;20.95;43.94;101104.94;4894284;29;3901;-73
2023/04/26 08:45:12;;;;;;;;;;;;;;;20.97;43.97;101104.28;4895932;29;4307;-73
2023/04/26 08:47:38;;;;;;;;;;;;;;;21.00;44.18;101095.09;4890849;29;5093;-73
2023/04/26 08:50:05;;;;;;;;;;;;;;;21.01;44.40;101084.34;4887477;29;5104;-72
2023/04/26 08:52:31;;;;;;;;;;;;;;;21.04;44.72;101101.03;4893665;29;4214;-72
2023/04/26 08:54:58;;;;;;;;;;;;;;;21.06;44.46;101098.25;4893762;29;4042;-72
2023/04/26 08:57:25;;;;;;;;;;;;;;;21.07;44.52;101099.75;4891097;29;4052;-72
2023/04/26 08:59:55;;;;;;;;;;;;;;;21.09;44.41;101090.47;4893030;29;4183;-72
2023/04/26 09:02:21;;;;;;;;;;;;;;;21.10;44.46;101109.25;4893970;29;4340;-72
2023/04/26 09:04:48;;;;;;;;;;;;;;;21.11;44.59;101094.19;4894166;29;5048;-73
2023/04/26 09:07:18;;;;;;;;;;;;;;;21.12;45.09;101094.94;4891605;29;4126;-72
2023/04/26 09:09:45;;;;;;;;;;;;;;;21.10;44.88;101092.69;4893292;29;4167;-72
2023/04/26 09:12:11;;;;;;;;;;;;;;;21.14;45.11;101097.88;4908583;29;4062;-72
2023/04/26 09:14:38;;;;;;;;;;;;;;;21.12;45.06;101103.56;4892323;29;4331;-72
2023/04/26 09:17:04;;;;;;;;;;;;;;;21.12;45.25;101100.69;4890551;29;4018;-72
2023/04/26 09:19:37;;;;;;;;;;;;;;;21.10;45.47;101103.47;4890559;29;4349;-68
2023/04/26 09:22:03;;;;;;;;;;;;;;;21.11;45.62;101099.94;4897985;29;4059;-69
2023/04/26 09:24:46;;;;;;;;;;;;;;;21.10;45.59;101107.09;4898855;29;4154;-66
2023/04/26 09:27:12;;;;;;;;;;;;;;;21.10;45.48;101089.09;4898846;29;4153;-66
2023/04/26 09:29:38;;;;;;;;;;;;;;;21.12;45.57;101089.91;4896126;29;4342;-66
2023/04/26 09:32:06;;;;;;;;;;;;;;;21.12;45.89;101094.94;4894684;29;4265;-66
2023/04/26 09:34:42;;;;;;;;;;;;;;;21.12;45.88;101083.44;4892722;29;4334;-66
2023/04/26 09:37:11;;;;;;;;;;;;;;;21.14;45.85;101097.88;4891803;29;4389;-66
2023/04/26 09:39:39;;;;;;;;;;;;;;;21.17;45.77;101102.38;4897052;29;4351;-66
2023/04/26 09:42:08;;;;;;;;;;;;;;;21.16;45.74;101095.09;4898155;29;4144;-66
2023/04/26 09:44:34;;;;;;;;;;;;;;;21.16;46.05;101103.75;4876251;29;4526;-66
2023/04/26 09:47:04;;;;;;;;;;;;;;;21.16;45.93;101086.47;4873884;29;4105;-65
2023/04/26 09:49:45;;;;;;;;;;;;;;;21.17;45.97;101101.63;4895619;29;4144;-66
2023/04/26 09:52:11;;;;;;;;;;;;;;;21.17;46.01;101099.50;4898793;29;4492;-66
2023/04/26 09:54:39;;;;;;;;;;;;;;;21.16;45.94;101100.88;4894140;29;4318;-66
2023/04/26 09:57:06;;;;;;;;;;;;;;;21.16;46.15;101088.63;4896215;29;4306;-66
2023/04/26 09:59:39;;;;;;;;;;;;;;;21.17;46.11;101090.84;4893439;29;4124;-66
2023/04/26 10:02:07;;;;;;;;;;;;;;;21.16;46.48;101085.72;4885615;29;4194;-66
2023/04/26 10:04:33;;;;;;;;;;;;;;;21.16;46.33;101089.34;4893934;29;4199;-66
2023/04/26 10:06:59;;;;;;;;;;;;;;;21.17;46.22;101085.09;4891588;29;4018;-66
2023/04/26 10:09:26;;;;;;;;;;;;;;;21.17;46.36;101090.13;4889034;29;4068;-66
2023/04/26 10:11:52;;;;;;;;;;;;;;;21.17;46.41;101087.22;4896297;29;4027;-66
2023/04/26 10:14:19;;;;;;;;;;;;;;;21.16;46.73;101089.34;4894958;29;5452;-66
2023/04/26 10:16:45;;;;;;;;;;;;;;;21.17;46.57;101087.97;4893021;29;4618;-66
2023/04/26 10:19:11;;;;;;;;;;;;;;;21.19;46.46;101090.19;4901353;29;4081;-65
2023/04/26 10:21:38;;;;;;;;;;;;;;;21.19;46.44;101088.06;4894203;29;4116;-66
2023/04/26 10:24:04;;;;;;;;;;;;;;;21.20;46.43;101086.66;4896119;29;4163;-66
2023/04/26 10:26:51;;;;;;;;;;;;;;;21.19;46.54;101093.81;4877224;29;4170;-66
2023/04/26 10:29:18;;;;;;;;;;;;;;;21.20;46.54;101100.31;4882595;29;4058;-66
2023/04/26 10:32:04;;;;;;;;;;;;;;;21.20;46.55;101100.31;4875545;29;4213;-66
2023/04/26 10:34:30;;;;;;;;;;;;;;;21.19;46.61;101104.59;4875590;29;4150;-65
2023/04/26 10:37:15;;;;;;;;;;;;;;;21.20;46.63;101100.31;4871488;29;4134;-66
2023/04/26 10:39:42;;;;;;;;;;;;;;;21.20;46.66;101103.94;4888605;29;4087;-66
2023/04/26 10:42:23;;;;;;;;;;;;;;;21.20;46.73;101106.09;4890105;29;4184;-66
2023/04/26 10:44:55;;;;;;;;;;;;;;;21.18;46.92;101100.97;4876750;29;3990;-66
2023/04/26 10:47:32;;;;;;;;;;;;;;;21.20;46.87;101106.09;4874534;29;4018;-66
2023/04/26 10:50:08;;;;;;;;;;;;;;;21.20;46.84;101112.59;4875519;29;4139;-66
2023/04/26 10:52:35;;;;;;;;;;;;;;;21.20;47.04;101106.09;4872693;29;4164;-66
2023/04/26 10:55:02;;;;;;;;;;;;;;;21.20;46.85;101106.81;4876832;29;4493;-66
2023/04/26 10:57:45;;;;;;;;;;;;;;;21.19;47.05;101111.09;4876162;29;4152;-66
2023/04/26 11:00:16;;;;;;;;;;;;;;;21.19;46.81;101099.59;4874455;29;4427;-66
2023/04/26 11:02:45;;;;;;;;;;;;;;;21.20;47.11;101095.31;4872852;29;4212;-66
2023/04/26 11:05:31;;;;;;;;;;;;;;;21.20;47.13;101094.56;4874895;29;4931;-66
2023/04/26 11:08:23;;;;;;;;;;;;;;;21.19;47.00;101105.34;4874360;29;4534;-66
2023/04/26 11:10:51;;;;;;;;;;;;;;;21.18;47.03;101098.09;4871428;29;4115;-66
2023/04/26 11:13:18;;;;;;;;;;;;;;;21.18;47.10;101100.22;4878258;29;3961;-65
2023/04/26 11:15:45;;;;;;;;;;;;;;;21.17;47.25;101104.50;4873297;29;4254;-66
2023/04/26 11:18:11;;;;;;;;;;;;;;;21.16;47.29;101095.09;4873324;29;4004;-66
2023/04/26 11:20:38;;;;;;;;;;;;;;;21.16;47.21;101111.66;4882520;29;4093;-66
2023/04/26 11:23:04;;;;;;;;;;;;;;;21.16;47.31;101100.88;4875963;29;4046;-66
2023/04/26 11:25:30;;;;;;;;;;;;;;;21.15;47.25;101108.03;4898249;29;4398;-66
2023/04/26 11:27:58;;;;;;;;;;;;;;;21.15;47.28;101121.69;4889955;29;4045;-66
2023/04/26 11:30:24;;;;;;;;;;;;;;;21.13;47.32;101113.69;4874796;29;4164;-66
2023/04/26 11:32:50;;;;;;;;;;;;;;;21.13;47.29;101123.06;4872404;29;4068;-66
2023/04/26 11:35:17;;;;;;;;;;;;;;;21.14;47.48;101115.16;4874407;29;4138;-66
2023/04/26 11:37:44;;;;;;;;;;;;;;;21.13;47.32;101113.69;4871948;29;4162;-66
2023/04/26 11:40:10;;;;;;;;;;;;;;;21.14;47.25;101115.16;4875908;29;5032;-66
2023/04/26 11:42:37;;;;;;;;;;;;;;;21.15;47.47;101122.44;4883923;29;4097;-66
2023/04/26 11:45:05;;;;;;;;;;;;;;;21.15;47.21;101116.66;4890917;29;4156;-68
2023/04/26 11:47:32;;;;;;;;;;;;;;;20.90;44.22;101121.25;4871780;29;4166;-69
2023/04/26 11:51:25;;;;;;;;;;;;;;;20.97;45.82;101112.94;5022971;27;4414;-71
2023/04/26 11:53:53;;;;;;;;;;;;;;;21.10;45.94;101106.34;5016965;28;4070;-71
2023/04/26 11:56:20;;;;;;;;;;;;;;;21.21;45.77;101113.31;5004324;28;4476;-69
2023/04/26 11:58:47;;;;;;;;;;;;;;;21.20;46.11;101112.59;5020489;28;4387;-69
2023/04/26 12:01:20;;;;;;;;;;;;;;;21.27;46.08;101107.84;5023119;28;4344;-69
2023/04/26 12:03:48;;;;;;;;;;;;;;;21.29;46.10;101117.31;5022194;28;4116;-69
2023/04/26 12:06:15;;;;;;;;;;;;;;;21.27;46.18;101125.88;5026957;28;4144;-69
2023/04/26 12:08:47;;;;;;;;;;;;;;;21.27;46.44;101125.88;5029333;28;4575;-69
2023/04/26 12:11:15;;;;;;;;;;;;;;;21.29;46.65;101131.72;5022316;28;4213;-69
2023/04/26 12:13:41;;;;;;;;;;;;;;;21.30;46.99;101126.72;5020786;28;5157;-70
2023/04/26 12:16:08;;;;;;;;;;;;;;;21.18;46.67;101131.91;5030138;28;4306;-69
2023/04/26 12:18:51;;;;;;;;;;;;;;;20.49;44.04;101130.75;5025279;28;4503;-70
2023/04/26 12:21:18;;;;;;;;;;;;;;;20.21;41.47;101126.44;5024077;28;4000;-69
2023/04/26 12:23:46;;;;;;;;;;;;;;;20.08;39.95;101128.66;5023891;28;3984;-70
2023/04/26 12:26:13;;;;;;;;;;;;;;;20.13;38.75;101123.88;5017173;28;4089;-69
2023/04/26 12:28:40;;;;;;;;;;;;;;;20.21;38.05;101112.81;5020868;28;4321;-71
2023/04/26 12:31:07;;;;;;;;;;;;;;;20.29;37.59;101113.22;5023274;28;4194;-68
2023/04/26 12:33:33;;;;;;;;;;;;;;;20.62;38.25;101114.13;5019821;28;4165;-68
2023/04/26 12:36:06;;;;;;;;;;;;;;;20.75;38.44;101119.06;5019509;28;4035;-69
2023/04/26 12:38:33;;;;;;;;;;;;;;;20.83;40.07;101113.72;5018764;28;4077;-66
2023/04/26 12:41:00;;;;;;;;;;;;;;;20.87;39.53;101116.06;5023257;28;4176;-67
2023/04/26 12:43:26;;;;;;;;;;;;;;;20.88;39.87;101109.66;5024450;28;3986;-67
2023/04/26 12:45:52;;;;;;;;;;;;;;;20.93;40.10;101105.56;5025757;28;5230;-67
2023/04/26 12:48:19;;;;;;;;;;;;;;;20.95;40.34;101104.94;5023416;28;4162;-67
2023/04/26 12:50:45;;;;;;;;;;;;;;;20.93;40.66;101108.44;5022173;28;4743;-69